createdAt,value
2024-05-09T00:00:45.799Z,6.40
2024-05-09T00:03:13.389Z,6.07
2024-05-09T00:05:44.439Z,5.55
2024-05-09T00:08:12.288Z,5.38
2024-05-09T00:10:40.703Z,6.00
2024-05-09T00:13:09.755Z,7.18
2024-05-09T00:15:37.459Z,7.38
2024-05-09T00:18:06.971Z,5.75
2024-05-09T00:20:39.005Z,6.10
2024-05-09T00:23:10.904Z,6.45
2024-05-09T00:25:38.934Z,6.90
2024-05-09T00:28:06.690Z,7.05
2024-05-09T00:30:36.232Z,7.00
2024-05-09T00:33:09.799Z,7.05
2024-05-09T00:35:38.804Z,7.60
2024-05-09T00:38:06.387Z,6.15
2024-05-09T00:40:42.345Z,6.57
2024-05-09T00:43:14.772Z,7.25
2024-05-09T00:45:43.170Z,6.38
2024-05-09T00:48:14.128Z,6.70
2024-05-09T00:50:45.306Z,5.93
2024-05-09T00:53:14.697Z,5.90
2024-05-09T00:55:42.644Z,6.70
2024-05-09T00:58:12.583Z,6.70
2024-05-09T01:00:41.498Z,7.03
2024-05-09T01:03:11.856Z,5.45
2024-05-09T01:05:41.069Z,5.95
2024-05-09T01:08:09.394Z,7.22
2024-05-09T01:10:37.811Z,6.90
2024-05-09T01:13:06.073Z,6.55
2024-05-09T01:15:34.409Z,7.30
2024-05-09T01:18:07.447Z,6.72
2024-05-09T01:20:41.673Z,6.07
2024-05-09T01:23:11.967Z,7.13
2024-05-09T01:25:39.757Z,6.53
2024-05-09T01:28:07.272Z,6.45
2024-05-09T01:30:36.822Z,6.15
2024-05-09T01:33:07.764Z,6.40
2024-05-09T01:35:36.703Z,6.43
2024-05-09T01:38:04.297Z,5.93
2024-05-09T01:43:01.577Z,6.00
2024-05-09T01:45:28.583Z,6.55
2024-05-09T01:47:55.891Z,5.90
2024-05-09T01:50:34.174Z,6.72
2024-05-09T01:53:06.096Z,5.57
2024-05-09T01:55:33.164Z,6.30
2024-05-09T01:58:00.211Z,5.95
2024-05-09T02:00:37.608Z,6.10
2024-05-09T02:03:15.927Z,6.00
2024-05-09T02:05:46.898Z,6.50
2024-05-09T02:08:16.996Z,6.05
2024-05-09T02:10:45.373Z,6.55
2024-05-09T02:13:13.541Z,6.45
2024-05-09T02:15:40.635Z,6.82
2024-05-09T02:18:08.865Z,6.43
2024-05-09T02:20:40.589Z,6.75
2024-05-09T02:23:09.650Z,7.15
2024-05-09T02:25:36.926Z,6.65
2024-05-09T02:28:04.167Z,6.88
2024-05-09T02:30:39.288Z,5.40
2024-05-09T02:33:11.852Z,6.20
2024-05-09T02:35:41.267Z,6.95
2024-05-09T02:38:09.721Z,5.85
2024-05-09T02:40:39.054Z,6.35
2024-05-09T02:43:09.821Z,6.20
2024-05-09T02:45:41.031Z,6.45
2024-05-09T02:48:12.123Z,6.03
2024-05-09T02:50:44.543Z,6.20
2024-05-09T02:53:12.572Z,5.97
2024-05-09T02:55:40.087Z,6.53
2024-05-09T02:58:07.875Z,6.15
2024-05-09T03:00:39.685Z,5.43
2024-05-09T03:03:14.667Z,6.13
2024-05-09T03:05:44.831Z,5.85
2024-05-09T03:08:12.618Z,6.15
2024-05-09T03:10:40.362Z,5.88
2024-05-09T03:13:14.798Z,6.60
2024-05-09T03:15:44.492Z,6.72
2024-05-09T03:18:12.519Z,5.90
2024-05-09T03:20:40.375Z,5.53
2024-05-09T03:23:09.222Z,6.32
2024-05-09T03:25:38.024Z,6.57
2024-05-09T03:28:05.653Z,6.00
2024-05-09T03:30:40.074Z,6.60
2024-05-09T03:33:12.512Z,7.22
2024-05-09T03:35:40.700Z,5.88
2024-05-09T03:38:07.885Z,5.63
2024-05-09T03:40:35.039Z,5.75
2024-05-09T03:43:02.084Z,6.13
2024-05-09T03:45:29.157Z,6.45
2024-05-09T03:47:57.513Z,5.80
2024-05-09T03:50:30.243Z,6.00
2024-05-09T03:53:02.073Z,5.05
2024-05-09T03:55:29.479Z,6.82
2024-05-09T03:57:57.241Z,6.65
2024-05-09T04:00:31.371Z,5.85
2024-05-09T04:03:07.596Z,7.07
2024-05-09T04:05:38.027Z,6.38
2024-05-09T04:08:05.974Z,6.15
2024-05-09T04:10:34.702Z,5.63
2024-05-09T04:13:03.682Z,5.85
2024-05-09T04:15:31.460Z,5.45
2024-05-09T04:17:58.961Z,7.38
2024-05-09T04:20:36.824Z,5.97
2024-05-09T04:23:08.432Z,6.22
2024-05-09T04:25:37.252Z,5.70
2024-05-09T04:28:05.293Z,6.45
2024-05-09T04:30:38.134Z,5.75
2024-05-09T04:33:10.572Z,6.13
2024-05-09T04:35:39.911Z,6.68
2024-05-09T04:38:08.270Z,6.55
2024-05-09T04:40:37.170Z,5.75
2024-05-09T04:43:06.711Z,6.80
2024-05-09T04:45:34.289Z,6.35
2024-05-09T04:48:02.276Z,6.30
2024-05-09T04:50:36.145Z,7.28
2024-05-09T04:53:09.134Z,6.68
2024-05-09T04:55:37.648Z,7.75
2024-05-09T04:58:06.921Z,7.60
2024-05-09T05:00:37.225Z,7.93
2024-05-09T05:03:13.997Z,7.30
2024-05-09T05:05:44.830Z,7.13
2024-05-09T05:08:17.924Z,6.90
2024-05-09T05:10:47.462Z,8.40
2024-05-09T05:13:25.008Z,8.45
2024-05-09T05:15:57.438Z,8.30
2024-05-09T05:18:27.711Z,8.23
2024-05-09T05:20:58.747Z,8.05
2024-05-09T05:23:26.000Z,9.77
2024-05-09T05:25:55.075Z,8.15
2024-05-09T05:28:22.592Z,8.23
2024-05-09T05:30:49.872Z,7.88
2024-05-09T05:33:20.210Z,9.20
2024-05-09T05:35:47.755Z,10.00
2024-05-09T05:38:15.254Z,9.70
2024-05-09T05:40:42.423Z,8.45
2024-05-09T05:43:17.573Z,8.10
2024-05-09T05:45:45.467Z,7.97
2024-05-09T05:48:14.071Z,8.60
2024-05-09T05:50:41.675Z,9.15
2024-05-09T05:53:10.640Z,8.57
2024-05-09T05:55:40.191Z,8.48
2024-05-09T05:58:11.317Z,9.48
2024-05-09T06:00:40.344Z,9.90
2024-05-09T06:03:10.503Z,12.23
2024-05-09T06:05:46.030Z,12.52
2024-05-09T06:08:13.323Z,11.52
2024-05-09T06:10:41.771Z,11.60
2024-05-09T06:13:14.019Z,12.50
2024-05-09T06:15:42.176Z,12.50
2024-05-09T06:18:11.614Z,13.32
2024-05-09T06:20:42.614Z,12.52
2024-05-09T06:23:11.015Z,13.18
2024-05-09T06:25:38.624Z,13.10
2024-05-09T06:28:06.124Z,13.20
2024-05-09T06:33:04.744Z,14.27
2024-05-09T06:35:32.551Z,13.32
2024-05-09T06:37:59.746Z,14.32
2024-05-09T06:40:36.061Z,14.52
2024-05-09T06:43:13.910Z,14.45
2024-05-09T06:45:41.258Z,14.65
2024-05-09T06:48:10.139Z,14.70
2024-05-09T06:50:39.493Z,12.48
2024-05-09T06:53:08.465Z,12.90
2024-05-09T06:55:37.056Z,13.38
2024-05-09T06:58:09.064Z,13.15
2024-05-09T07:00:39.882Z,12.48
2024-05-09T07:03:16.033Z,12.98
2024-05-09T07:05:46.678Z,12.32
2024-05-09T07:08:14.976Z,12.85
2024-05-09T07:10:42.305Z,11.48
2024-05-09T07:13:13.717Z,11.27
2024-05-09T07:15:41.742Z,8.48
2024-05-09T07:18:23.724Z,9.73
2024-05-09T07:20:51.226Z,10.20
2024-05-09T07:23:18.969Z,8.73
2024-05-09T07:25:46.614Z,8.95
2024-05-09T07:28:19.160Z,9.25
2024-05-09T07:30:47.040Z,9.50
2024-05-09T07:33:19.943Z,9.85
2024-05-09T07:35:48.803Z,9.32
2024-05-09T07:38:16.281Z,8.32
2024-05-09T07:40:43.590Z,7.72
2024-05-09T07:43:11.930Z,7.22
2024-05-09T07:45:48.807Z,7.82
2024-05-09T07:52:46.045Z,8.73
2024-05-09T07:53:49.787Z,8.70
2024-05-09T07:56:22.370Z,8.57
2024-05-09T07:58:54.189Z,8.43
2024-05-09T08:01:21.872Z,8.40
2024-05-09T08:03:50.485Z,8.10
2024-05-09T08:06:18.154Z,8.00
2024-05-09T08:08:47.226Z,7.55
2024-05-09T08:11:14.825Z,7.10
2024-05-09T08:13:42.252Z,7.18
2024-05-09T08:16:09.875Z,5.72
2024-05-09T08:18:38.059Z,7.88
2024-05-09T08:21:06.572Z,7.43
2024-05-09T08:23:33.808Z,7.80
2024-05-09T08:26:00.876Z,7.28
2024-05-09T08:28:28.102Z,6.63
2024-05-09T08:30:56.803Z,6.50
2024-05-09T08:33:24.090Z,6.20
2024-05-09T08:35:53.993Z,7.40
2024-05-09T08:38:21.037Z,7.30
2024-05-09T08:40:49.046Z,6.55
2024-05-09T08:43:17.632Z,6.78
2024-05-09T08:45:46.927Z,7.50
2024-05-09T08:48:15.837Z,6.55
2024-05-09T08:50:45.015Z,7.50
2024-05-09T08:53:14.785Z,7.38
2024-05-09T08:55:43.711Z,6.70
2024-05-09T08:58:18.284Z,7.13
2024-05-09T09:00:46.921Z,6.53
2024-05-09T09:03:25.347Z,6.90
2024-05-09T09:06:11.828Z,7.20
2024-05-09T09:08:39.662Z,6.15
2024-05-09T09:11:07.310Z,6.72
2024-05-09T09:13:34.340Z,6.07
2024-05-09T09:16:02.853Z,6.55
2024-05-09T09:18:30.811Z,7.80
2024-05-09T09:20:58.460Z,6.93
2024-05-09T09:23:30.109Z,6.60
2024-05-09T09:26:00.933Z,6.88
2024-05-09T09:28:28.284Z,6.53
2024-05-09T09:31:03.271Z,5.85
2024-05-09T09:33:35.619Z,6.97
2024-05-09T09:36:03.257Z,7.40
2024-05-09T09:38:32.443Z,7.03
2024-05-09T09:41:01.835Z,6.60
2024-05-09T09:43:29.574Z,6.43
2024-05-09T09:45:59.929Z,6.75
2024-05-09T09:48:30.850Z,6.68
2024-05-09T09:50:58.541Z,6.88
2024-05-09T09:53:26.757Z,6.20
2024-05-09T09:55:55.873Z,7.50
2024-05-09T09:58:23.943Z,5.93
2024-05-09T10:00:51.312Z,6.15
2024-05-09T10:03:18.470Z,5.43
2024-05-09T10:05:47.356Z,5.90
2024-05-09T10:08:16.744Z,5.78
2024-05-09T10:10:49.503Z,5.53
2024-05-09T10:13:16.849Z,5.65
2024-05-09T10:15:46.027Z,5.57
2024-05-09T10:18:14.225Z,5.00
2024-05-09T10:20:46.380Z,3.92
2024-05-09T10:23:28.178Z,4.40
2024-05-09T10:26:06.162Z,5.07
2024-05-09T10:28:36.928Z,4.00
2024-05-09T10:31:09.820Z,3.95
2024-05-09T10:33:47.491Z,3.38
2024-05-09T10:36:19.083Z,4.60
2024-05-09T10:38:46.261Z,3.80
2024-05-09T10:41:13.366Z,4.28
2024-05-09T10:43:41.676Z,4.97
2024-05-09T10:46:10.414Z,5.25
2024-05-09T10:48:38.658Z,4.55
2024-05-09T10:51:05.968Z,4.47
2024-05-09T10:53:44.937Z,4.93
2024-05-09T10:56:14.200Z,4.30
2024-05-09T10:58:41.354Z,3.65
2024-05-09T11:01:09.789Z,4.35
2024-05-09T11:03:37.926Z,4.57
2024-05-09T11:06:06.640Z,4.85
2024-05-09T11:08:35.509Z,4.18
2024-05-09T11:11:07.191Z,4.38
2024-05-09T11:13:38.115Z,4.35
2024-05-09T11:16:17.494Z,3.72
2024-05-09T11:18:52.971Z,3.72
2024-05-09T11:21:20.235Z,3.95
2024-05-09T11:23:47.395Z,4.20
2024-05-09T11:26:17.197Z,4.07
2024-05-09T11:28:46.153Z,3.40
2024-05-09T11:31:13.392Z,4.45
2024-05-09T11:33:45.682Z,4.07
2024-05-09T11:36:13.364Z,4.07
2024-05-09T11:38:41.167Z,4.07
2024-05-09T11:41:08.306Z,3.20
2024-05-09T11:43:35.411Z,3.90
2024-05-09T11:46:03.916Z,4.18
2024-05-09T11:48:31.794Z,3.92
2024-05-09T11:50:59.167Z,3.90
2024-05-09T11:53:26.388Z,4.05
2024-05-09T11:55:53.535Z,3.45
2024-05-09T11:58:22.788Z,3.28
2024-05-09T12:00:50.300Z,3.28
2024-05-09T12:03:17.525Z,3.17
2024-05-09T12:05:44.772Z,4.00
2024-05-09T12:08:12.479Z,3.70
2024-05-09T12:10:39.596Z,4.90
2024-05-09T12:13:07.673Z,3.80
2024-05-09T12:15:38.928Z,3.72
2024-05-09T12:18:07.767Z,3.72
2024-05-09T12:20:38.716Z,3.90
2024-05-09T12:23:09.770Z,4.10
2024-05-09T12:25:39.157Z,4.43
2024-05-09T12:28:07.684Z,5.25
2024-05-09T12:30:38.805Z,4.75
2024-05-09T12:33:09.485Z,4.38
2024-05-09T12:35:36.911Z,4.00
2024-05-09T12:38:04.352Z,3.92
2024-05-09T12:40:36.490Z,4.07
2024-05-09T12:43:08.555Z,3.92
2024-05-09T12:45:37.496Z,4.05
2024-05-09T12:48:08.250Z,4.57
2024-05-09T12:50:36.951Z,4.35
2024-05-09T12:53:05.461Z,5.28
2024-05-09T12:55:41.231Z,4.85
2024-05-09T12:58:17.681Z,4.80
2024-05-09T13:00:45.570Z,3.75
2024-05-09T13:03:13.219Z,4.40
2024-05-09T13:05:45.238Z,4.75
2024-05-09T13:08:13.640Z,4.03
2024-05-09T13:10:41.084Z,4.63
2024-05-09T13:13:10.544Z,4.75
2024-05-09T13:15:38.223Z,4.57
2024-05-09T13:18:06.500Z,4.10
2024-05-09T13:20:35.702Z,4.78
2024-05-09T13:23:05.738Z,4.25
2024-05-09T13:25:37.116Z,4.03
2024-05-09T13:28:06.712Z,3.88
2024-05-09T13:30:39.573Z,3.83
2024-05-09T13:33:11.248Z,4.07
2024-05-09T13:35:40.753Z,4.00
2024-05-09T13:38:09.114Z,3.65
2024-05-09T13:40:36.766Z,3.58
2024-05-09T13:43:07.165Z,3.83
2024-05-09T13:45:35.187Z,3.70
2024-05-09T13:48:04.138Z,3.90
2024-05-09T13:50:35.291Z,4.03
2024-05-09T13:53:06.133Z,3.90
2024-05-09T13:55:34.998Z,4.13
2024-05-09T13:58:02.599Z,4.55
2024-05-09T14:02:59.728Z,4.40
2024-05-09T14:05:27.022Z,3.47
2024-05-09T14:07:54.116Z,4.00
2024-05-09T14:10:28.453Z,3.70
2024-05-09T14:12:58.054Z,4.55
2024-05-09T14:15:25.156Z,4.55
2024-05-09T14:17:52.238Z,3.95
2024-05-09T14:20:28.576Z,4.20
2024-05-09T14:22:59.653Z,4.13
2024-05-09T14:25:31.936Z,4.32
2024-05-09T14:27:59.450Z,4.65
2024-05-09T14:30:34.768Z,4.38
2024-05-09T14:33:06.503Z,7.43
2024-05-09T14:35:34.538Z,9.40
2024-05-09T14:38:01.988Z,9.90
2024-05-09T14:40:39.083Z,8.88
2024-05-09T14:43:14.792Z,8.40
2024-05-09T14:45:43.854Z,9.73
2024-05-09T14:48:14.159Z,9.30
2024-05-09T14:50:41.922Z,9.13
2024-05-09T14:53:11.722Z,9.70
2024-05-09T14:55:41.179Z,8.63
2024-05-09T14:58:10.671Z,9.15
2024-05-09T15:00:47.962Z,10.75
2024-05-09T15:03:19.952Z,10.00
2024-05-09T15:05:48.355Z,9.98
2024-05-09T15:08:18.200Z,10.40
2024-05-09T15:10:46.287Z,9.80
2024-05-09T15:13:16.382Z,11.73
2024-05-09T15:15:44.418Z,11.07
2024-05-09T15:18:11.907Z,10.98
2024-05-09T15:20:40.655Z,11.05
2024-05-09T15:23:07.953Z,11.55
2024-05-09T15:25:36.720Z,11.25
2024-05-09T15:28:07.328Z,10.77
2024-05-09T15:30:35.216Z,10.40
2024-05-09T15:33:06.956Z,10.68
2024-05-09T15:35:35.435Z,10.82
2024-05-09T15:38:03.788Z,10.63
2024-05-09T15:40:38.299Z,11.65
2024-05-09T15:43:09.709Z,10.48
2024-05-09T15:45:38.586Z,11.38
2024-05-09T15:48:07.544Z,10.20
2024-05-09T15:50:39.176Z,11.23
2024-05-09T15:53:13.443Z,11.48
2024-05-09T15:55:41.910Z,11.10
2024-05-09T15:58:09.689Z,12.05
2024-05-09T16:00:40.637Z,11.38
2024-05-09T16:03:11.763Z,11.75
2024-05-09T16:05:41.047Z,11.90
2024-05-09T16:08:08.764Z,10.40
2024-05-09T16:10:38.689Z,11.27
2024-05-09T16:13:06.361Z,11.07
2024-05-09T16:15:33.529Z,11.10
2024-05-09T16:18:01.065Z,11.52
2024-05-09T16:20:37.337Z,10.85
2024-05-09T16:23:08.492Z,11.80
2024-05-09T16:25:35.925Z,11.95
2024-05-09T16:28:08.498Z,12.80
2024-05-09T16:30:38.868Z,12.77
2024-05-09T16:33:10.899Z,12.18
2024-05-09T16:35:39.273Z,12.10
2024-05-09T16:38:06.835Z,11.80
2024-05-09T16:40:38.746Z,12.27
2024-05-09T16:43:10.019Z,12.30
2024-05-09T16:45:39.398Z,12.70
2024-05-09T16:48:08.064Z,12.18
2024-05-09T16:50:36.142Z,11.77
2024-05-09T16:53:06.250Z,13.05
2024-05-09T16:55:34.974Z,13.63
2024-05-09T16:58:03.036Z,14.20
2024-05-09T17:00:38.870Z,14.10
2024-05-09T17:03:11.334Z,14.38
2024-05-09T17:05:39.419Z,14.55
2024-05-09T17:08:07.778Z,15.50
2024-05-09T17:10:36.225Z,15.07
2024-05-09T17:13:06.385Z,15.15
2024-05-09T17:15:35.646Z,14.60
2024-05-09T17:18:04.039Z,15.95
2024-05-09T17:20:34.729Z,15.95
2024-05-09T17:23:06.017Z,14.45
2024-05-09T17:25:34.327Z,15.40
2024-05-09T17:28:07.343Z,15.25
2024-05-09T17:30:38.271Z,14.75
2024-05-09T17:33:09.583Z,15.32
2024-05-09T17:35:37.840Z,14.75
2024-05-09T17:38:06.419Z,15.73
2024-05-09T17:40:36.462Z,14.55
2024-05-09T17:43:07.683Z,15.48
2024-05-09T17:45:39.836Z,15.85
2024-05-09T17:48:09.573Z,16.13
2024-05-09T17:50:37.967Z,17.17
2024-05-09T17:53:06.560Z,16.45
2024-05-09T17:55:34.179Z,17.20
2024-05-09T17:58:01.726Z,16.80
2024-05-09T18:00:37.118Z,17.55
2024-05-09T18:03:08.779Z,16.98
2024-05-09T18:05:37.244Z,16.88
2024-05-09T18:08:06.807Z,16.38
2024-05-09T18:10:37.952Z,17.83
2024-05-09T18:13:11.438Z,16.65
2024-05-09T18:15:39.392Z,15.70
2024-05-09T18:18:07.844Z,16.42
2024-05-09T18:20:42.751Z,16.58
2024-05-09T18:23:17.899Z,16.30
2024-05-09T18:25:46.270Z,16.58
2024-05-09T18:28:13.920Z,15.57
2024-05-09T18:30:41.242Z,15.50
2024-05-09T18:33:11.169Z,16.38
2024-05-09T18:35:38.852Z,16.73
2024-05-09T18:38:06.109Z,17.23
2024-05-09T18:40:36.425Z,15.57
2024-05-09T18:43:07.621Z,15.55
2024-05-09T18:45:39.131Z,16.80
2024-05-09T18:48:08.543Z,16.40
2024-05-09T18:50:39.534Z,16.25
2024-05-09T18:53:13.167Z,15.68
2024-05-09T18:55:42.165Z,17.05
2024-05-09T18:58:09.455Z,16.25
2024-05-09T19:00:39.199Z,13.75
2024-05-09T19:03:11.087Z,13.70
2024-05-09T19:05:41.107Z,13.65
2024-05-09T19:08:08.927Z,14.00
2024-05-09T19:10:38.834Z,13.65
2024-05-09T19:13:10.895Z,12.38
2024-05-09T19:15:40.957Z,13.35
2024-05-09T19:18:09.556Z,12.60
2024-05-09T19:20:37.479Z,13.23
2024-05-09T19:23:07.021Z,13.05
2024-05-09T19:25:36.322Z,11.80
2024-05-09T19:28:05.340Z,11.10
2024-05-09T19:30:39.481Z,11.90
2024-05-09T19:33:11.769Z,10.60
2024-05-09T19:35:39.910Z,10.60
2024-05-09T19:38:07.064Z,11.13
2024-05-09T19:40:35.262Z,11.38
2024-05-09T19:43:04.758Z,11.13
2024-05-09T19:45:33.172Z,11.15
2024-05-09T19:48:01.275Z,11.48
2024-05-09T19:50:36.999Z,11.02
2024-05-09T19:53:09.769Z,10.77
2024-05-09T19:55:37.133Z,10.90
2024-05-09T19:58:07.000Z,10.52
2024-05-09T20:00:39.065Z,11.68
2024-05-09T20:03:08.955Z,10.38
2024-05-09T20:05:37.136Z,11.23
2024-05-09T20:08:05.609Z,10.73
2024-05-09T20:10:35.094Z,10.73
2024-05-09T20:13:05.440Z,11.07
2024-05-09T20:15:37.784Z,11.43
2024-05-09T20:18:06.172Z,10.40
2024-05-09T20:20:39.269Z,10.20
2024-05-09T20:23:10.599Z,10.23
2024-05-09T20:25:37.757Z,10.95
2024-05-09T20:28:06.169Z,10.20
2024-05-09T20:30:35.287Z,10.60
2024-05-09T20:33:05.636Z,12.10
2024-05-09T20:35:34.091Z,10.65
2024-05-09T20:38:02.650Z,11.18
2024-05-09T20:40:35.154Z,10.35
2024-05-09T20:43:06.672Z,10.47
2024-05-09T20:45:34.546Z,11.07
2024-05-09T20:48:02.227Z,10.77
2024-05-09T20:50:37.225Z,10.48
2024-05-09T20:53:13.046Z,12.07
2024-05-09T20:55:41.340Z,12.95
2024-05-09T20:58:09.604Z,11.50
2024-05-09T21:00:40.604Z,12.32
2024-05-09T21:03:12.223Z,11.30
2024-05-09T21:05:40.333Z,10.10
2024-05-09T21:08:07.890Z,10.93
2024-05-09T21:10:36.240Z,9.85
2024-05-09T21:13:07.013Z,11.15
2024-05-09T21:15:35.140Z,11.10
2024-05-09T21:18:02.755Z,9.95
2024-05-09T21:20:32.776Z,10.98
2024-05-09T21:23:01.438Z,9.77
2024-05-09T21:25:29.004Z,10.15
2024-05-09T21:27:56.149Z,11.55
2024-05-09T21:30:32.513Z,11.32
2024-05-09T21:33:13.593Z,12.57
2024-05-09T21:35:43.713Z,12.02
2024-05-09T21:38:11.244Z,12.80
2024-05-09T21:40:38.829Z,12.05
2024-05-09T21:43:07.751Z,11.38
2024-05-09T21:45:36.276Z,11.10
2024-05-09T21:48:04.859Z,10.32
2024-05-09T21:50:39.214Z,10.10
2024-05-09T21:53:09.243Z,10.27
2024-05-09T21:55:36.288Z,10.95
2024-05-09T21:58:03.806Z,11.90
2024-05-09T22:00:36.720Z,9.80
2024-05-09T22:03:10.280Z,9.70
2024-05-09T22:05:41.893Z,11.05
2024-05-09T22:08:09.597Z,9.48
2024-05-09T22:10:37.270Z,9.82
2024-05-09T22:13:06.513Z,10.48
2024-05-09T22:15:39.765Z,9.50
2024-05-09T22:18:09.763Z,10.60
2024-05-09T22:20:44.475Z,9.45
2024-05-09T22:23:13.345Z,9.02
2024-05-09T22:25:40.526Z,10.13
2024-05-09T22:28:07.972Z,10.73
2024-05-09T22:30:38.599Z,10.90
2024-05-09T22:33:09.365Z,10.45
2024-05-09T22:35:37.896Z,11.38
2024-05-09T22:38:05.107Z,9.55
2024-05-09T22:40:41.991Z,10.73
2024-05-09T22:43:22.640Z,9.75
2024-05-09T22:45:52.666Z,10.73
2024-05-09T22:48:20.230Z,10.25
2024-05-09T22:50:47.531Z,9.30
2024-05-09T22:53:14.757Z,10.13
2024-05-09T22:55:42.077Z,9.95
2024-05-09T22:58:09.231Z,10.45
2024-05-09T23:00:36.441Z,9.80
2024-05-09T23:03:03.919Z,9.88
2024-05-09T23:05:32.511Z,10.15
2024-05-09T23:08:01.931Z,10.13
2024-05-09T23:10:35.712Z,10.55
2024-05-09T23:15:33.614Z,10.13
2024-05-09T23:18:00.900Z,10.93
2024-05-09T23:20:36.278Z,9.77
2024-05-09T23:23:07.613Z,12.00
2024-05-09T23:25:35.139Z,10.90
2024-05-09T23:28:02.479Z,11.82
2024-05-09T23:30:37.432Z,11.23
2024-05-09T23:33:09.119Z,11.32
2024-05-09T23:35:36.587Z,11.07
2024-05-09T23:38:04.084Z,11.75
2024-05-09T23:40:38.406Z,11.25
2024-05-09T23:43:12.492Z,13.05
2024-05-09T23:45:41.040Z,11.45
2024-05-09T23:48:08.806Z,11.45
2024-05-09T23:50:38.355Z,9.48
2024-05-09T23:53:08.655Z,9.30
2024-05-09T23:55:36.881Z,9.68
2024-05-09T23:58:04.348Z,9.25
